Time;durP1;ratioP1;P1;durP2;ratioP2;P2;SDS_P1;SDS_P2;PMS_P1;PMS_P2;Temp;Humidity;BMP_temperature;BMP_pressure;BME280_temperature;BME280_humidity;BME280_pressure;Samples;Min_cycle;Max_cycle;Signal;HPM_P1;HPM_P2
2022/02/05 00:01:45;;;;;;;1.58;0.80;;;17.60;45.90;;;;;;5138981;27;20042;-55
2022/02/05 00:04:13;;;;;;;1.27;0.75;;;17.60;45.90;;;;;;5137879;27;20478;-56
2022/02/05 00:06:43;;;;;;;1.20;0.80;;;17.60;46.00;;;;;;5137981;27;20015;-53
2022/02/05 00:09:35;;;;;;;1.38;0.77;;;17.60;46.00;;;;;;5137529;27;20043;-54
2022/02/05 00:41:14;;;;;;;1.08;0.65;;;17.50;45.80;;;;;;5137640;27;20027;-56
2022/02/05 00:43:47;;;;;;;2.13;1.00;;;17.50;45.70;;;;;;5137272;27;20027;-55
2022/02/05 00:46:14;;;;;;;1.00;0.73;;;17.50;45.70;;;;;;5137038;27;20107;-55
2022/02/05 00:48:40;;;;;;;1.45;0.80;;;17.50;45.70;;;;;;5136815;27;20027;-50
2022/02/05 00:51:13;;;;;;;1.38;0.88;;;17.50;45.80;;;;;;5136649;27;20015;-51
2022/02/05 00:53:41;;;;;;;0.90;0.63;;;17.50;45.80;;;;;;5136382;27;20026;-52
2022/02/05 00:56:22;;;;;;;1.63;0.80;;;17.50;45.80;;;;;;5135224;27;20092;-50
2022/02/05 00:58:48;;;;;;;1.75;0.80;;;17.50;45.70;;;;;;5136197;27;20046;-52
2022/02/05 01:01:14;;;;;;;1.77;0.90;;;17.50;45.70;;;;;;5136239;27;20477;-52
2022/02/05 01:03:40;;;;;;;1.45;0.75;;;17.50;45.90;;;;;;5135217;27;20033;-50
2022/02/05 01:06:06;;;;;;;1.42;0.70;;;17.50;45.80;;;;;;5136620;27;20050;-49
2022/02/05 01:08:32;;;;;;;0.98;0.73;;;17.40;45.70;;;;;;5134497;27;20011;-53
2022/02/05 01:10:58;;;;;;;2.17;0.90;;;17.50;45.80;;;;;;5135920;27;20011;-51
2022/02/05 01:13:26;;;;;;;1.58;0.70;;;17.50;45.80;;;;;;5135806;27;20026;-51
2022/02/05 01:16:18;;;;;;;1.60;0.80;;;17.40;45.80;;;;;;5135508;27;20024;-51
2022/02/05 01:18:43;;;;;;;1.58;0.95;;;17.40;45.70;;;;;;5135210;27;20046;-53
2022/02/05 01:24:00;;;;;;;2.03;0.90;;;17.40;45.80;;;;;;5134969;27;20401;-53
2022/02/05 01:26:41;;;;;;;1.30;0.80;;;17.40;45.70;;;;;;5135485;27;20049;-49
2022/02/05 01:29:22;;;;;;;1.35;0.88;;;17.40;45.80;;;;;;5135232;27;20019;-51
2022/02/05 01:31:53;;;;;;;;;;;17.40;45.80;;;;;;5135898;27;20024;-51
2022/02/05 01:34:28;;;;;;;1.83;0.77;;;17.40;45.50;;;;;;5135162;27;19921;-49
2022/02/05 01:50:53;;;;;;;2.00;1.00;;;17.40;45.40;;;;;;5135306;27;20035;-51
2022/02/05 01:53:36;;;;;;;1.38;0.90;;;17.40;45.40;;;;;;5135447;27;20039;-51
2022/02/05 02:12:22;;;;;;;2.33;0.80;;;17.30;45.90;;;;;;5090210;27;20038;-52
2022/02/05 02:20:01;;;;;;;1.00;0.80;;;17.20;45.40;;;;;;5136043;27;20053;-51
2022/02/05 02:22:43;;;;;;;2.35;1.00;;;17.20;45.30;;;;;;5136319;27;20098;-51
2022/02/05 02:25:22;;;;;;;2.22;0.70;;;17.30;45.20;;;;;;5135837;27;20068;-52
2022/02/05 02:28:03;;;;;;;1.48;0.57;;;17.30;45.50;;;;;;5135840;27;20027;-53
2022/02/05 02:30:34;;;;;;;1.88;0.82;;;17.20;45.20;;;;;;5136136;27;20459;-51
2022/02/05 02:33:12;;;;;;;1.05;0.70;;;17.20;45.70;;;;;;5136247;27;20019;-54
2022/02/05 02:35:44;;;;;;;1.33;0.80;;;17.20;45.20;;;;;;5135046;27;20071;-54
2022/02/05 02:38:13;;;;;;;2.63;1.00;;;17.20;45.20;;;;;;5136256;27;20011;-52
2022/02/05 02:43:25;;;;;;;2.22;0.82;;;17.20;45.30;;;;;;5135606;27;20038;-54
2022/02/05 02:45:51;;;;;;;2.00;0.97;;;17.20;45.70;;;;;;5135715;27;20016;-55
2022/02/05 02:48:17;;;;;;;1.23;0.70;;;17.20;45.30;;;;;;5134220;27;20011;-53
2022/02/05 02:59:04;;;;;;;2.05;0.80;;;17.20;45.20;;;;;;5135409;27;20057;-53
2022/02/05 03:01:31;;;;;;;1.25;0.70;;;17.20;45.20;;;;;;5133980;28;20019;-53
2022/02/05 03:03:57;;;;;;;0.98;0.70;;;17.20;45.00;;;;;;5135362;27;20023;-52
2022/02/05 03:06:23;;;;;;;2.35;0.75;;;17.20;45.30;;;;;;5133824;28;20007;-53
2022/02/05 03:08:50;;;;;;;1.35;0.70;;;17.20;45.10;;;;;;5133355;28;20077;-51
2022/02/05 03:11:19;;;;;;;1.40;0.73;;;17.10;45.10;;;;;;5135029;27;20068;-52
2022/02/05 03:13:46;;;;;;;2.38;0.85;;;17.20;45.10;;;;;;5134986;27;20027;-52
2022/02/05 03:16:21;;;;;;;1.52;0.68;;;17.20;45.20;;;;;;5135062;27;20015;-52
2022/02/05 03:19:00;;;;;;;1.10;0.70;;;17.20;45.20;;;;;;5134543;27;20098;-51
2022/02/05 03:21:26;;;;;;;1.70;0.90;;;17.10;45.00;;;;;;5134671;27;20031;-52
2022/02/05 03:23:53;;;;;;;0.98;0.50;;;17.10;45.00;;;;;;5134363;28;20028;-53
2022/02/05 03:26:18;;;;;;;2.10;0.90;;;17.10;45.20;;;;;;5134672;27;20022;-51
2022/02/05 03:28:44;;;;;;;1.27;0.80;;;17.10;45.00;;;;;;5134261;28;20469;-53
2022/02/05 03:31:10;;;;;;;1.40;0.82;;;17.10;45.40;;;;;;5133016;28;20015;-51
2022/02/05 03:33:36;;;;;;;1.25;0.70;;;17.10;45.10;;;;;;5134417;27;20046;-51
2022/02/05 03:36:03;;;;;;;1.55;0.70;;;17.10;45.00;;;;;;5133238;28;20023;-53
2022/02/05 03:38:29;;;;;;;1.63;0.85;;;17.10;45.50;;;;;;5134286;28;20094;-52
2022/02/05 03:40:55;;;;;;;1.48;0.85;;;17.00;45.00;;;;;;5134177;28;20046;-49
2022/02/05 03:43:21;;;;;;;1.73;1.00;;;17.10;45.30;;;;;;5115154;28;20457;-51
2022/02/05 03:45:47;;;;;;;2.97;0.90;;;17.10;45.30;;;;;;5133843;27;20469;-51
2022/02/05 03:48:13;;;;;;;1.77;1.10;;;17.10;45.30;;;;;;5136195;27;20469;-53
2022/02/05 03:50:39;;;;;;;1.55;0.77;;;17.10;45.20;;;;;;5119660;27;20026;-52
2022/02/05 03:53:06;;;;;;;1.30;0.85;;;17.10;45.30;;;;;;5137950;27;20019;-50
2022/02/05 03:55:31;;;;;;;1.52;0.65;;;17.00;45.20;;;;;;5138351;27;20019;-52
2022/02/05 03:57:57;;;;;;;2.13;0.85;;;17.00;45.20;;;;;;5138221;27;20072;-52
2022/02/05 04:00:23;;;;;;;1.80;1.08;;;17.00;45.30;;;;;;5138489;27;20023;-51
2022/02/05 04:02:50;;;;;;;2.10;0.90;;;17.00;45.00;;;;;;5137932;27;20027;-52
2022/02/05 04:05:16;;;;;;;1.25;0.90;;;17.00;45.00;;;;;;5138424;27;20099;-50
2022/02/05 04:07:47;;;;;;;1.00;0.57;;;17.00;45.30;;;;;;5138540;27;20008;-52
2022/02/05 04:10:17;;;;;;;1.33;0.88;;;17.00;45.10;;;;;;5138590;27;20043;-49
2022/02/05 04:18:11;;;;;;;1.10;0.63;;;17.00;45.30;;;;;;5138381;27;20084;-52
2022/02/05 04:20:42;;;;;;;4.68;1.13;;;17.00;45.50;;;;;;5138535;27;20019;-52
2022/02/05 04:23:08;;;;;;;2.30;0.73;;;17.00;45.40;;;;;;5138905;27;20029;-51
2022/02/05 04:25:35;;;;;;;1.90;0.80;;;17.00;45.20;;;;;;5137091;27;20588;-49
2022/02/05 04:28:00;;;;;;;2.30;1.00;;;17.00;45.60;;;;;;5138000;27;20007;-52
2022/02/05 04:30:27;;;;;;;1.45;0.82;;;17.00;45.60;;;;;;5138139;27;20011;-52
2022/02/05 04:32:54;;;;;;;1.55;0.70;;;16.90;45.30;;;;;;5138309;27;20065;-52
2022/02/05 04:35:21;;;;;;;2.92;1.30;;;16.90;45.60;;;;;;5138291;27;20011;-52
2022/02/05 04:37:51;;;;;;;2.13;0.73;;;16.90;45.40;;;;;;5138629;27;20033;-50
2022/02/05 04:43:14;;;;;;;2.72;0.90;;;16.90;45.60;;;;;;5121710;27;20039;-52
2022/02/05 05:04:02;;;;;;;1.80;0.80;;;16.90;45.70;;;;;;5136792;27;20118;-54
2022/02/05 05:09:14;;;;;;;1.20;0.80;;;16.90;45.80;;;;;;5136854;27;20015;-52
2022/02/05 05:21:55;;;;;;;1.25;0.77;;;16.80;45.60;;;;;;5136040;27;20091;-53
2022/02/05 05:24:21;;;;;;;1.92;0.90;;;16.90;45.80;;;;;;5136344;27;20022;-48
2022/02/05 05:26:47;;;;;;;2.15;0.60;;;16.80;45.60;;;;;;5136294;27;20466;-52
2022/02/05 05:29:13;;;;;;;1.23;0.60;;;16.80;45.70;;;;;;5135389;27;20020;-48
2022/02/05 05:31:40;;;;;;;1.33;0.77;;;16.80;45.70;;;;;;5136268;27;20052;-49
2022/02/05 05:34:06;;;;;;;2.33;0.73;;;16.80;45.70;;;;;;5136569;27;20023;-49
2022/02/05 05:36:32;;;;;;;1.65;0.85;;;16.80;45.70;;;;;;5136235;27;20086;-49
2022/02/05 05:39:01;;;;;;;1.63;0.60;;;16.80;45.80;;;;;;5135990;27;20442;-49
2022/02/05 05:41:32;;;;;;;1.80;0.98;;;16.80;45.70;;;;;;5135859;27;20488;-52
2022/02/05 05:46:48;;;;;;;1.75;1.05;;;16.80;45.70;;;;;;5136034;27;20050;-49
2022/02/05 05:49:17;;;;;;;1.80;0.88;;;16.70;45.80;;;;;;5136006;27;20064;-52
2022/02/05 05:51:48;;;;;;;1.50;0.88;;;16.80;45.70;;;;;;5135739;27;20015;-50
2022/02/05 05:54:14;;;;;;;2.40;0.90;;;16.80;45.60;;;;;;5135637;27;20090;-50
2022/02/05 05:56:41;;;;;;;1.60;0.80;;;16.70;45.60;;;;;;5135462;27;20019;-51
2022/02/05 05:59:07;;;;;;;2.55;0.77;;;16.80;45.70;;;;;;5135449;27;20007;-49
2022/02/05 06:01:35;;;;;;;3.70;1.30;;;16.80;45.60;;;;;;5135695;27;20019;-52
2022/02/05 06:04:01;;;;;;;2.92;1.10;;;16.80;45.70;;;;;;5135645;27;20015;-49
2022/02/05 06:06:28;;;;;;;1.70;0.90;;;16.80;45.70;;;;;;5135048;27;20011;-52
2022/02/05 06:08:54;;;;;;;0.93;0.70;;;16.80;45.50;;;;;;5135284;27;20019;-49
2022/02/05 06:11:20;;;;;;;2.05;1.00;;;16.80;45.70;;;;;;5134938;27;20466;-51
2022/02/05 06:13:47;;;;;;;1.95;1.00;;;16.70;45.80;;;;;;5135498;27;20020;-48
2022/02/05 06:16:17;;;;;;;4.88;1.00;;;16.70;45.70;;;;;;5135354;27;20496;-54
2022/02/05 06:18:42;;;;;;;2.10;0.95;;;16.70;45.70;;;;;;5135270;27;20100;-52
2022/02/05 06:21:08;;;;;;;1.63;0.77;;;16.70;45.70;;;;;;5135867;27;20019;-52
2022/02/05 06:23:34;;;;;;;1.13;0.70;;;16.70;45.70;;;;;;5136181;27;20034;-54
2022/02/05 06:26:01;;;;;;;1.27;0.73;;;16.70;45.70;;;;;;5136065;27;20018;-49
2022/02/05 06:28:28;;;;;;;1.75;0.80;;;16.70;45.80;;;;;;5135643;27;20082;-53
2022/02/05 06:30:55;;;;;;;1.40;0.82;;;16.70;45.60;;;;;;5135397;27;20492;-54
2022/02/05 06:33:20;;;;;;;0.95;0.60;;;16.70;45.70;;;;;;5135420;27;20041;-53
2022/02/05 06:35:46;;;;;;;2.15;0.90;;;16.70;45.70;;;;;;5135733;27;20022;-53
2022/02/05 06:38:12;;;;;;;1.42;0.93;;;16.70;45.80;;;;;;5135821;27;20015;-51
2022/02/05 06:40:39;;;;;;;1.70;0.90;;;16.70;45.60;;;;;;5135440;27;20499;-54
2022/02/05 06:43:05;;;;;;;1.98;0.90;;;16.70;45.80;;;;;;5135296;27;20481;-51
2022/02/05 06:45:32;;;;;;;3.17;0.80;;;16.70;45.80;;;;;;5134884;27;20026;-50
2022/02/05 06:47:59;;;;;;;1.73;0.80;;;16.70;45.80;;;;;;5135123;27;20016;-53
2022/02/05 06:50:26;;;;;;;2.47;0.60;;;16.60;45.70;;;;;;5135038;27;20086;-53
2022/02/05 06:52:52;;;;;;;2.10;0.80;;;16.60;45.70;;;;;;5134477;27;20477;-51
2022/02/05 06:55:18;;;;;;;1.85;0.73;;;16.60;45.70;;;;;;5134584;27;20015;-51
2022/02/05 06:57:45;;;;;;;1.98;0.75;;;16.60;45.60;;;;;;5134691;27;20076;-51
2022/02/05 07:00:11;;;;;;;1.95;1.00;;;16.60;45.70;;;;;;5132916;28;20012;-49
2022/02/05 07:02:42;;;;;;;1.50;0.70;;;16.60;45.50;;;;;;5134412;27;20055;-52
2022/02/05 07:05:07;;;;;;;3.35;0.95;;;16.70;45.60;;;;;;5134027;27;20007;-53
2022/02/05 07:07:33;;;;;;;1.30;0.70;;;16.60;45.70;;;;;;5134863;28;20031;-51
2022/02/05 07:09:59;;;;;;;1.50;0.80;;;16.60;45.60;;;;;;5136034;28;20008;-51
2022/02/05 07:12:24;;;;;;;1.90;0.90;;;16.60;45.70;;;;;;5118507;28;20439;-49
2022/02/05 07:17:28;;;;;;;2.47;1.00;;;16.60;45.70;;;;;;5117126;28;20165;-49
2022/02/05 07:22:20;;;;;;;1.67;0.90;;;16.60;45.70;;;;;;5133544;27;20374;-52
2022/02/05 07:29:12;;;;;;;4.90;0.90;;;16.60;45.70;;;;;;5138561;27;20039;-50
2022/02/05 07:30:19;;;;;;;1.38;0.85;;;16.60;45.70;;;;;;5137122;27;20046;-50
2022/02/05 07:32:44;;;;;;;1.95;0.90;;;16.60;45.50;;;;;;5136271;27;20461;-49
2022/02/05 07:35:10;;;;;;;1.90;0.80;;;16.60;45.70;;;;;;5137652;27;20019;-48
2022/02/05 07:37:37;;;;;;;2.00;0.77;;;16.60;45.70;;;;;;5136498;27;20489;-49
2022/02/05 07:40:03;;;;;;;1.70;0.70;;;16.60;45.50;;;;;;5137863;27;20072;-49
2022/02/05 07:42:30;;;;;;;2.13;0.98;;;16.60;45.60;;;;;;5136585;27;20027;-50
2022/02/05 07:44:55;;;;;;;1.90;0.90;;;16.60;45.70;;;;;;5137497;27;20031;-49
2022/02/05 07:47:22;;;;;;;1.70;0.80;;;16.60;45.70;;;;;;5138469;27;20019;-51
2022/02/05 07:49:48;;;;;;;1.80;0.95;;;16.50;46.20;;;;;;5138492;27;20011;-49
2022/02/05 07:52:14;;;;;;;2.42;0.73;;;16.60;45.70;;;;;;5136847;27;20534;-53
2022/02/05 07:54:40;;;;;;;2.20;0.90;;;16.60;45.60;;;;;;5138221;27;20098;-49
2022/02/05 07:57:06;;;;;;;1.58;0.77;;;16.50;45.60;;;;;;5138565;27;20015;-51
2022/02/05 07:59:34;;;;;;;2.75;0.80;;;16.50;45.60;;;;;;5139379;27;20067;-52
2022/02/05 08:02:00;;;;;;;5.93;0.98;;;16.60;45.60;;;;;;5138597;27;20027;-52
2022/02/05 08:04:26;;;;;;;2.40;0.90;;;16.50;45.50;;;;;;5138919;27;20016;-49
2022/02/05 08:06:52;;;;;;;2.25;1.02;;;16.60;45.60;;;;;;5137989;27;20104;-51
2022/02/05 08:09:31;;;;;;;3.50;1.02;;;16.50;45.50;;;;;;5137334;27;20458;-50
2022/02/05 08:12:04;;;;;;;1.13;0.68;;;16.50;45.40;;;;;;5136166;27;20046;-52
2022/02/05 08:14:34;;;;;;;1.35;0.70;;;16.50;45.50;;;;;;5135698;27;20358;-50
2022/02/05 08:19:25;;;;;;;2.50;1.00;;;16.50;45.50;;;;;;5138494;27;20497;-51
2022/02/05 08:22:07;;;;;;;1.10;0.70;;;16.50;45.60;;;;;;5139145;27;20503;-51
2022/02/05 08:24:33;;;;;;;1.80;0.80;;;16.50;45.50;;;;;;5141328;27;20026;-50
2022/02/05 08:26:59;;;;;;;1.63;0.77;;;16.50;45.60;;;;;;5139544;27;20382;-49
2022/02/05 08:29:26;;;;;;;2.10;0.80;;;16.50;45.60;;;;;;5138303;27;20034;-51
2022/02/05 08:31:52;;;;;;;1.20;0.75;;;16.50;45.60;;;;;;5137056;27;20007;-49
2022/02/05 08:34:19;;;;;;;3.30;1.08;;;16.50;45.60;;;;;;5135068;27;20011;-48
2022/02/05 08:36:46;;;;;;;3.10;0.90;;;16.50;45.60;;;;;;5136511;27;20477;-49
2022/02/05 08:39:14;;;;;;;1.63;0.70;;;16.50;45.60;;;;;;5136639;27;20011;-48
2022/02/05 08:41:41;;;;;;;1.30;0.80;;;16.50;45.50;;;;;;5136491;27;20032;-49
2022/02/05 08:44:07;;;;;;;1.38;1.00;;;16.50;45.50;;;;;;5136427;27;20019;-49
2022/02/05 08:46:34;;;;;;;1.20;0.70;;;16.50;45.50;;;;;;5136518;27;20019;-52
2022/02/05 08:49:00;;;;;;;1.90;0.90;;;16.50;45.50;;;;;;5136817;27;20148;-50
2022/02/05 08:51:26;;;;;;;1.98;0.80;;;16.50;45.50;;;;;;5136666;27;20023;-51
2022/02/05 08:53:54;;;;;;;2.88;1.08;;;16.50;45.50;;;;;;5136517;27;20098;-48
2022/02/05 08:56:21;;;;;;;2.58;0.98;;;16.50;45.40;;;;;;5136704;27;20048;-50
2022/02/05 08:58:49;;;;;;;1.65;0.90;;;16.50;45.50;;;;;;5137166;27;20110;-58
2022/02/05 09:01:19;;;;;;;1.75;0.98;;;16.50;45.20;;;;;;5136801;27;20019;-52
2022/02/05 09:03:57;;;;;;;1.25;0.70;;;16.50;45.30;;;;;;5136764;27;20055;-49
2022/02/05 09:06:28;;;;;;;1.42;0.65;;;16.50;45.30;;;;;;5136899;27;20015;-48
2022/02/05 09:09:06;;;;;;;3.00;0.90;;;16.50;45.30;;;;;;5137069;27;20084;-50
2022/02/05 09:11:37;;;;;;;3.55;0.90;;;16.50;45.40;;;;;;5135236;27;20016;-53
2022/02/05 09:16:34;;;;;;;2.55;0.90;;;16.50;45.20;;;;;;5136673;27;20461;-53
2022/02/05 09:19:01;;;;;;;2.58;0.90;;;16.50;45.40;;;;;;5135616;27;20142;-56
2022/02/05 09:21:30;;;;;;;1.42;0.75;;;16.50;45.30;;;;;;5135976;27;20019;-58
2022/02/05 09:23:58;;;;;;;1.80;0.85;;;16.50;45.70;;;;;;5135968;27;20080;-53
2022/02/05 09:26:25;;;;;;;1.80;1.00;;;16.50;45.40;;;;;;5135932;27;20098;-56
2022/02/05 09:28:52;;;;;;;1.40;0.80;;;16.50;45.40;;;;;;5135554;27;20008;-54
2022/02/05 09:33:50;;;;;;;1.45;0.68;;;16.50;45.30;;;;;;5135880;27;20019;-54
2022/02/05 09:36:16;;;;;;;1.70;0.90;;;16.50;45.30;;;;;;5135967;27;20027;-53
2022/02/05 09:38:43;;;;;;;1.15;0.77;;;16.50;45.30;;;;;;5135442;27;20027;-51
2022/02/05 09:41:08;;;;;;;2.38;0.80;;;16.50;45.30;;;;;;5135836;27;20033;-54
2022/02/05 09:43:34;;;;;;;1.67;0.88;;;16.50;45.20;;;;;;5133944;27;20023;-54
2022/02/05 09:46:00;;;;;;;2.00;0.82;;;16.50;45.30;;;;;;5133509;27;20011;-54
2022/02/05 09:48:29;;;;;;;1.50;0.90;;;16.50;45.30;;;;;;5135601;27;20012;-54
2022/02/05 09:50:56;;;;;;;1.40;0.80;;;16.50;45.30;;;;;;5135966;27;20122;-55
2022/02/05 09:53:22;;;;;;;2.13;0.82;;;16.50;45.30;;;;;;5134511;27;20022;-52
2022/02/05 09:55:49;;;;;;;1.10;0.70;;;16.50;45.20;;;;;;5135171;27;20019;-53
2022/02/05 09:58:16;;;;;;;1.85;0.80;;;16.50;45.20;;;;;;5135375;27;20030;-53
2022/02/05 10:00:42;;;;;;;1.73;0.88;;;16.50;45.20;;;;;;5133980;27;20023;-53
2022/02/05 10:03:24;;;;;;;2.33;0.82;;;16.50;45.20;;;;;;5116767;27;20023;-53
2022/02/05 10:06:06;;;;;;;4.47;1.20;;;16.50;45.30;;;;;;5134757;27;20064;-53
2022/02/05 10:08:32;;;;;;;;;;;16.50;45.20;;;;;;5135031;27;20022;-54
2022/02/05 10:10:59;;;;;;;3.55;0.90;;;16.50;45.20;;;;;;5133423;27;19899;-54
2022/02/05 10:13:26;;;;;;;1.25;0.70;;;16.50;45.20;;;;;;5134667;27;20031;-54
2022/02/05 10:15:54;;;;;;;1.77;1.05;;;16.50;45.20;;;;;;5133220;27;20049;-54
2022/02/05 10:18:32;;;;;;;1.23;0.75;;;16.50;45.20;;;;;;5133511;27;20122;-53
2022/02/05 10:21:18;;;;;;;2.03;0.80;;;16.50;45.20;;;;;;5134482;27;20022;-55
2022/02/05 10:24:02;;;;;;;2.00;0.65;;;16.50;45.20;;;;;;5134673;27;20075;-55
2022/02/05 10:26:29;;;;;;;2.28;0.90;;;16.50;45.20;;;;;;5134626;27;20047;-53
2022/02/05 10:29:08;;;;;;;2.22;0.88;;;16.50;45.10;;;;;;5134267;27;20050;-53
2022/02/05 10:34:36;;;;;;;1.67;0.68;;;16.50;45.00;;;;;;5134539;27;20050;-53
2022/02/05 10:37:09;;;;;;;1.27;0.80;;;16.50;45.10;;;;;;5135061;27;20015;-53
2022/02/05 10:40:03;;;;;;;1.52;0.85;;;16.50;45.10;;;;;;5135038;27;20159;-54
2022/02/05 10:45:15;;;;;;;1.52;0.85;;;16.50;45.00;;;;;;5134883;27;20019;-53
2022/02/05 10:47:54;;;;;;;1.33;0.75;;;16.50;45.00;;;;;;5134491;27;20011;-53
2022/02/05 10:50:23;;;;;;;1.55;0.63;;;16.50;45.10;;;;;;5134509;27;20495;-55
2022/02/05 10:52:51;;;;;;;3.03;0.80;;;16.50;45.00;;;;;;5134673;27;20011;-53
2022/02/05 10:55:36;;;;;;;2.08;0.85;;;16.50;44.90;;;;;;5134481;27;20046;-57
2022/02/05 11:08:09;;;;;;;1.95;0.77;;;16.50;44.80;;;;;;5133949;27;20023;-54
2022/02/05 11:13:41;;;;;;;1.98;0.80;;;16.50;44.70;;;;;;5133926;27;20045;-55
2022/02/05 11:21:18;;;;;;;1.77;0.80;;;16.50;44.80;;;;;;5132853;28;20023;-54
2022/02/05 11:23:47;;;;;;;1.50;0.85;;;16.50;44.70;;;;;;5133851;28;20031;-54
2022/02/05 11:26:13;;;;;;;1.10;0.70;;;16.50;44.60;;;;;;5132357;28;20023;-53
2022/02/05 11:28:50;;;;;;;2.85;0.98;;;16.50;44.70;;;;;;5133855;28;20015;-54
2022/02/05 11:31:31;;;;;;;1.48;0.80;;;16.50;44.60;;;;;;5133981;27;20020;-54
2022/02/05 11:34:36;;;;;;;1.35;0.80;;;16.50;44.60;;;;;;5133822;27;20011;-53
2022/02/05 11:37:12;;;;;;;1.98;0.82;;;16.40;44.70;;;;;;5133427;27;20101;-53
2022/02/05 11:39:53;;;;;;;1.77;0.85;;;16.50;44.60;;;;;;5132353;28;20023;-53
2022/02/05 11:42:34;;;;;;;1.02;0.70;;;16.50;44.30;;;;;;5133738;27;20031;-53
2022/02/05 11:45:02;;;;;;;2.30;0.88;;;16.50;44.60;;;;;;5133543;27;20068;-53
2022/02/05 11:47:31;;;;;;;2.90;1.13;;;16.50;44.50;;;;;;5132261;28;20102;-53
2022/02/05 11:49:57;;;;;;;1.40;0.80;;;16.50;44.30;;;;;;5133529;27;20023;-53
2022/02/05 11:52:43;;;;;;;2.03;0.70;;;16.40;44.50;;;;;;5133317;28;20561;-54
2022/02/05 11:55:12;;;;;;;1.55;0.85;;;16.50;44.30;;;;;;5133584;28;20050;-54
2022/02/05 11:57:45;;;;;;;1.77;0.70;;;16.50;44.10;;;;;;5132277;28;20016;-52
2022/02/05 12:00:11;;;;;;;1.98;0.77;;;16.50;44.20;;;;;;5133623;27;20023;-52
2022/02/05 12:02:40;;;;;;;1.10;0.80;;;16.40;44.30;;;;;;5133239;27;20027;-54
2022/02/05 12:05:14;;;;;;;1.80;0.88;;;16.50;44.40;;;;;;5133187;27;20019;-52
2022/02/05 12:08:03;;;;;;;1.00;0.50;;;16.40;44.20;;;;;;5133177;27;20023;-52
2022/02/05 12:10:44;;;;;;;3.05;1.25;;;16.50;44.30;;;;;;5124416;27;20097;-55
2022/02/05 12:13:24;;;;;;;;;;;16.50;44.00;;;;;;5137546;27;20015;-53
2022/02/05 12:15:56;;;;;;;1.75;0.80;;;16.50;44.40;;;;;;5136804;27;19960;-53
2022/02/05 12:18:26;;;;;;;1.42;0.75;;;16.50;44.10;;;;;;5136512;27;20049;-53
2022/02/05 12:21:13;;;;;;;3.65;0.90;;;16.50;44.20;;;;;;5135739;27;20025;-54
2022/02/05 12:26:20;;;;;;;0.88;0.50;;;16.50;44.20;;;;;;5136932;27;20015;-54
2022/02/05 12:28:47;;;;;;;2.88;0.80;;;16.50;44.10;;;;;;5136713;27;20041;-53
2022/02/05 12:31:19;;;;;;;1.98;1.02;;;16.50;43.90;;;;;;5136593;27;20027;-54
2022/02/05 12:33:48;;;;;;;1.38;0.70;;;16.50;44.00;;;;;;5136493;27;20083;-54
2022/02/05 12:36:14;;;;;;;1.35;0.60;;;16.50;43.90;;;;;;5136656;27;20019;-53
2022/02/05 12:38:43;;;;;;;2.30;0.80;;;16.50;43.80;;;;;;5136690;27;20018;-55
2022/02/05 12:41:12;;;;;;;2.15;0.82;;;16.50;43.90;;;;;;5136464;27;20042;-53
2022/02/05 12:43:54;;;;;;;2.75;0.88;;;16.40;43.80;;;;;;5136563;27;20028;-54
2022/02/05 12:46:26;;;;;;;2.25;0.90;;;16.40;43.90;;;;;;5136836;27;20046;-53
2022/02/05 12:48:58;;;;;;;2.60;1.02;;;16.50;43.80;;;;;;5118905;27;20083;-52
2022/02/05 12:51:24;;;;;;;1.23;0.65;;;16.50;43.90;;;;;;5136277;27;20011;-55
2022/02/05 12:53:50;;;;;;;2.30;0.80;;;16.50;43.70;;;;;;5136277;27;20046;-53
2022/02/05 12:56:17;;;;;;;1.80;0.80;;;16.50;43.70;;;;;;5136211;27;20054;-54
2022/02/05 12:59:00;;;;;;;2.33;0.80;;;16.50;43.70;;;;;;5136524;27;20021;-52
2022/02/05 13:01:26;;;;;;;1.85;0.85;;;16.50;43.70;;;;;;5136341;27;20026;-53
2022/02/05 13:03:52;;;;;;;1.52;0.77;;;16.50;43.60;;;;;;5136009;27;20031;-57
2022/02/05 13:06:21;;;;;;;1.98;0.90;;;16.50;43.60;;;;;;5134821;27;20019;-53
2022/02/05 13:08:49;;;;;;;1.27;0.60;;;16.50;43.50;;;;;;5135850;27;20011;-53
2022/02/05 13:11:24;;;;;;;1.90;0.68;;;16.50;43.60;;;;;;5136143;27;20023;-55
2022/02/05 13:13:54;;;;;;;1.67;0.95;;;16.50;43.50;;;;;;5134799;27;20072;-54
2022/02/05 13:16:23;;;;;;;5.50;0.98;;;16.50;43.70;;;;;;5135924;27;20052;-53
2022/02/05 13:19:17;;;;;;;2.30;0.80;;;16.50;43.50;;;;;;5135789;27;20066;-55
2022/02/05 13:25:34;;;;;;;0.90;0.68;;;16.50;43.70;;;;;;5136002;27;20096;-56
2022/02/05 13:28:14;;;;;;;2.35;0.90;;;16.50;43.50;;;;;;5135392;27;20062;-53
2022/02/05 13:36:22;;;;;;;3.90;0.98;;;16.50;43.60;;;;;;5135371;27;20079;-53
2022/02/05 13:41:47;;;;;;;3.03;0.80;;;16.50;43.30;;;;;;5135437;27;20019;-54
2022/02/05 13:44:17;;;;;;;1.30;0.60;;;16.50;43.50;;;;;;5135055;27;20023;-54
2022/02/05 13:46:58;;;;;;;3.38;1.08;;;16.50;43.60;;;;;;5135204;27;20018;-53
2022/02/05 13:49:29;;;;;;;2.20;0.88;;;16.50;43.60;;;;;;5135649;27;20090;-49
2022/02/05 13:51:54;;;;;;;2.13;1.00;;;16.60;43.60;;;;;;5135320;27;20114;-49
2022/02/05 13:54:31;;;;;;;1.98;0.80;;;16.50;43.50;;;;;;5135003;27;20489;-53
2022/02/05 13:57:01;;;;;;;2.13;0.80;;;16.60;43.50;;;;;;5135161;27;20041;-48
2022/02/05 13:59:28;;;;;;;1.48;0.85;;;16.60;43.50;;;;;;5134092;27;20107;-48
2022/02/05 14:01:53;;;;;;;1.90;0.80;;;16.60;43.50;;;;;;5134965;27;20008;-49
2022/02/05 14:04:25;;;;;;;1.38;0.80;;;16.60;43.40;;;;;;5135214;27;20391;-48
2022/02/05 14:06:58;;;;;;;1.33;0.70;;;16.60;43.40;;;;;;5134992;27;20017;-48
2022/02/05 14:09:29;;;;;;;1.90;0.80;;;16.60;43.30;;;;;;5135131;27;20019;-48
2022/02/05 14:11:58;;;;;;;2.00;0.85;;;16.60;43.30;;;;;;5135066;27;20026;-48
2022/02/05 14:14:28;;;;;;;2.35;0.90;;;16.70;43.40;;;;;;5133858;27;20012;-48
2022/02/05 14:16:54;;;;;;;1.55;0.70;;;16.70;43.40;;;;;;5135326;27;20100;-48
2022/02/05 14:19:25;;;;;;;1.95;0.85;;;16.60;43.30;;;;;;5135455;27;20043;-48
2022/02/05 14:21:53;;;;;;;2.13;0.80;;;16.70;43.30;;;;;;5135348;27;20007;-48
2022/02/05 14:24:27;;;;;;;1.90;0.80;;;16.70;43.20;;;;;;5134876;27;20019;-48
2022/02/05 14:27:05;;;;;;;1.92;0.70;;;16.70;43.20;;;;;;5134229;27;20095;-49
2022/02/05 14:29:39;;;;;;;3.75;1.00;;;16.70;43.20;;;;;;5133377;27;20011;-48
2022/02/05 14:32:23;;;;;;;2.03;0.70;;;16.60;43.10;;;;;;5134393;27;20019;-49
2022/02/05 14:40:44;;;;;;;2.13;1.05;;;16.70;43.40;;;;;;5134783;27;20088;-48
2022/02/05 14:43:09;;;;;;;1.40;0.80;;;16.70;43.10;;;;;;5133963;27;20051;-49
2022/02/05 14:45:35;;;;;;;2.33;0.73;;;16.70;43.10;;;;;;5133131;27;20395;-49
2022/02/05 14:48:10;;;;;;;1.50;0.70;;;16.70;43.10;;;;;;5134764;27;20015;-51
2022/02/05 14:50:35;;;;;;;2.60;0.80;;;16.70;43.10;;;;;;5134774;27;20008;-52
2022/02/05 14:53:02;;;;;;;4.72;0.95;;;16.70;43.10;;;;;;5134952;27;20026;-49
2022/02/05 14:55:28;;;;;;;1.33;0.52;;;16.70;43.20;;;;;;5134754;27;20015;-48
2022/02/05 14:57:54;;;;;;;2.75;1.00;;;16.70;43.20;;;;;;5133135;27;20162;-49
2022/02/05 15:00:20;;;;;;;1.73;0.80;;;16.70;43.20;;;;;;5134305;28;20023;-48
2022/02/05 15:02:49;;;;;;;2.38;0.90;;;16.60;43.20;;;;;;5134142;28;20110;-50
2022/02/05 15:05:15;;;;;;;1.75;0.80;;;16.60;43.10;;;;;;5134515;27;20027;-48
2022/02/05 15:07:41;;;;;;;3.72;0.90;;;16.60;43.20;;;;;;5134232;27;20069;-48
2022/02/05 15:10:09;;;;;;;2.05;1.15;;;16.60;43.30;;;;;;5134660;27;20011;-51
2022/02/05 15:12:36;;;;;;;1.50;0.93;;;16.50;43.30;;;;;;5134786;27;20015;-50
2022/02/05 15:15:11;;;;;;;2.67;0.90;;;16.50;43.30;;;;;;5135209;27;20532;-49
2022/02/05 15:17:42;;;;;;;2.47;0.80;;;16.50;43.20;;;;;;5133607;28;20015;-53
2022/02/05 15:20:14;;;;;;;1.25;0.70;;;16.50;43.30;;;;;;5134324;27;20042;-53
2022/02/05 15:22:41;;;;;;;2.28;0.90;;;16.50;43.40;;;;;;5134127;27;20051;-49
2022/02/05 15:25:10;;;;;;;1.75;0.75;;;16.50;43.50;;;;;;5132344;28;20026;-48
2022/02/05 15:27:36;;;;;;;1.70;0.68;;;16.50;43.40;;;;;;5133888;27;20027;-49
2022/02/05 15:30:03;;;;;;;1.30;0.68;;;16.50;43.40;;;;;;5133832;28;20016;-48
2022/02/05 15:32:29;;;;;;;2.35;0.90;;;16.50;43.50;;;;;;5132405;28;20434;-48
2022/02/05 15:34:55;;;;;;;2.20;0.70;;;16.50;43.40;;;;;;5132162;28;20114;-48
2022/02/05 15:37:24;;;;;;;1.45;0.52;;;16.50;43.50;;;;;;5133542;28;20385;-48
2022/02/05 15:45:02;;;;;;;2.15;0.75;;;16.40;43.60;;;;;;5137171;27;20023;-49
2022/02/05 15:47:29;;;;;;;1.60;0.73;;;16.40;43.50;;;;;;5137673;27;20011;-48
2022/02/05 15:49:55;;;;;;;1.65;0.80;;;16.40;43.70;;;;;;5136301;27;20397;-48
2022/02/05 15:52:21;;;;;;;1.73;1.05;;;16.40;43.70;;;;;;5137743;27;20024;-50
2022/02/05 15:54:47;;;;;;;1.52;0.70;;;16.40;43.80;;;;;;5137770;27;20015;-49
2022/02/05 16:02:08;;;;;;;2.38;0.88;;;16.40;43.80;;;;;;5137223;27;20016;-50
2022/02/05 16:04:33;;;;;;;3.40;0.80;;;16.40;43.90;;;;;;5137582;27;20500;-49
2022/02/05 16:07:00;;;;;;;1.20;0.68;;;16.40;43.90;;;;;;5137423;27;20019;-50
2022/02/05 16:09:26;;;;;;;2.67;0.90;;;16.30;43.90;;;;;;5137248;27;20019;-48
2022/02/05 16:11:52;;;;;;;2.85;0.75;;;16.30;43.90;;;;;;5137022;27;20030;-51